Time;durP1;ratioP1;P1;durP2;ratioP2;P2;SDS_P1;SDS_P2;PMS_P1;PMS_P2;Temp;Humidity;BMP_temperature;BMP_pressure;BME280_temperature;BME280_humidity;BME280_pressure;Samples;Min_cycle;Max_cycle;Signal;HPM_P1;HPM_P2
2022/07/10 00:02:17;;;;;;;3.33;1.40;;;15.00;99.90;;;;;;5028301;28;20299;-74
2022/07/10 00:04:44;;;;;;;3.07;1.27;;;15.10;99.90;;;;;;5040169;28;20226;-74
2022/07/10 00:07:11;;;;;;;4.17;1.70;;;15.10;99.90;;;;;;5047985;28;20208;-73
2022/07/10 00:09:37;;;;;;;2.70;1.20;;;15.10;99.90;;;;;;5039266;28;20201;-73
2022/07/10 00:12:05;;;;;;;4.27;1.40;;;15.10;99.90;;;;;;5031307;28;20208;-73
2022/07/10 00:14:32;;;;;;;3.37;1.43;;;15.20;99.90;;;;;;5037270;28;20457;-73
2022/07/10 00:16:59;;;;;;;4.07;1.60;;;15.20;99.90;;;;;;5027995;28;20200;-73
2022/07/10 00:19:27;;;;;;;4.43;1.40;;;15.20;99.90;;;;;;5027560;28;20205;-72
2022/07/10 00:21:53;;;;;;;3.93;1.57;;;15.10;99.90;;;;;;5027377;28;20207;-72
2022/07/10 00:24:20;;;;;;;4.73;1.30;;;15.10;99.90;;;;;;5036060;28;20212;-72
2022/07/10 00:26:47;;;;;;;2.20;1.20;;;15.20;99.90;;;;;;5047617;28;20580;-72
2022/07/10 00:29:14;;;;;;;9.03;1.80;;;15.10;99.90;;;;;;5047612;28;20287;-73
2022/07/10 00:31:41;;;;;;;3.20;1.20;;;15.10;99.90;;;;;;5046359;28;20228;-73
2022/07/10 00:34:08;;;;;;;5.57;1.43;;;15.10;99.90;;;;;;5047479;28;20200;-73
2022/07/10 00:36:36;;;;;;;2.47;1.27;;;15.10;99.90;;;;;;5047195;28;20222;-72
2022/07/10 00:39:03;;;;;;;2.53;1.60;;;15.00;99.90;;;;;;5037808;28;20220;-72
2022/07/10 00:41:29;;;;;;;4.57;1.20;;;15.00;99.90;;;;;;5027860;28;20211;-72
2022/07/10 00:43:58;;;;;;;2.37;1.40;;;15.10;99.90;;;;;;5047407;28;20676;-72
2022/07/10 00:46:26;;;;;;;3.47;1.30;;;15.00;99.90;;;;;;5047301;28;20204;-72
2022/07/10 00:48:53;;;;;;;4.87;1.20;;;15.00;99.90;;;;;;5047398;28;20890;-72
2022/07/10 00:51:22;;;;;;;4.40;1.17;;;15.00;99.90;;;;;;5046546;28;20197;-73
2022/07/10 00:53:50;;;;;;;3.63;1.20;;;15.00;99.90;;;;;;5037797;28;20221;-72
2022/07/10 00:56:19;;;;;;;3.13;1.17;;;14.90;99.90;;;;;;5027332;28;20252;-72
2022/07/10 00:58:47;;;;;;;3.67;1.00;;;14.90;99.90;;;;;;5027250;28;20240;-72
2022/07/10 01:01:14;;;;;;;3.63;1.20;;;14.90;99.90;;;;;;5032305;28;20203;-71
2022/07/10 01:03:42;;;;;;;7.67;1.53;;;14.90;99.90;;;;;;5047008;28;20635;-72
2022/07/10 01:06:08;;;;;;;3.07;1.17;;;14.90;99.90;;;;;;5046636;28;20682;-72
2022/07/10 01:08:35;;;;;;;4.00;1.10;;;14.80;99.90;;;;;;5047120;28;20200;-72
2022/07/10 01:11:06;;;;;;;3.00;1.23;;;14.90;99.90;;;;;;5047214;28;20231;-72
2022/07/10 01:13:33;;;;;;;3.13;1.23;;;14.80;99.90;;;;;;5046752;28;20204;-72
2022/07/10 01:16:00;;;;;;;3.17;1.43;;;14.80;99.90;;;;;;5047200;28;20247;-72
2022/07/10 01:18:27;;;;;;;3.70;1.20;;;14.80;99.90;;;;;;5047104;28;20196;-72
2022/07/10 01:20:55;;;;;;;3.87;1.40;;;14.80;99.90;;;;;;5046907;28;20211;-72
2022/07/10 01:23:22;;;;;;;5.33;1.33;;;14.80;99.90;;;;;;5042474;28;20213;-72
2022/07/10 01:25:49;;;;;;;3.17;1.27;;;14.70;99.90;;;;;;5047066;28;20650;-72
2022/07/10 01:28:17;;;;;;;2.07;1.00;;;14.70;99.90;;;;;;5047179;28;20663;-72
2022/07/10 01:30:44;;;;;;;1.97;1.13;;;14.60;99.90;;;;;;5036895;28;20229;-72
2022/07/10 01:33:11;;;;;;;3.23;1.30;;;14.60;99.90;;;;;;5029496;28;20664;-72
2022/07/10 01:35:38;;;;;;;4.43;1.37;;;14.60;99.90;;;;;;5030741;28;20236;-72
2022/07/10 01:38:07;;;;;;;4.80;1.23;;;14.50;99.90;;;;;;5030496;28;20730;-72
2022/07/10 01:40:34;;;;;;;2.40;1.10;;;14.60;99.90;;;;;;5030403;28;20209;-72
2022/07/10 01:43:01;;;;;;;2.97;1.20;;;14.60;99.90;;;;;;5040557;28;20545;-72
2022/07/10 01:45:28;;;;;;;2.57;0.93;;;14.60;99.90;;;;;;5050546;28;20841;-72
2022/07/10 01:47:54;;;;;;;3.97;1.43;;;14.60;99.90;;;;;;5048475;28;20212;-73
2022/07/10 01:50:21;;;;;;;3.67;1.00;;;14.60;99.90;;;;;;5030507;28;20263;-72
2022/07/10 01:52:48;;;;;;;3.43;1.37;;;14.60;99.90;;;;;;5030546;28;20205;-72
2022/07/10 01:55:17;;;;;;;4.83;1.30;;;14.50;99.90;;;;;;5046888;28;20231;-72
2022/07/10 01:57:43;;;;;;;4.33;1.07;;;14.50;99.90;;;;;;5050230;28;20232;-73
2022/07/10 02:00:11;;;;;;;3.50;1.20;;;14.50;99.90;;;;;;5039378;28;20197;-72
2022/07/10 02:02:38;;;;;;;1.77;0.90;;;14.50;99.90;;;;;;5029963;28;20212;-72
2022/07/10 02:05:04;;;;;;;2.80;1.20;;;14.40;99.90;;;;;;5043906;28;20663;-72
2022/07/10 02:07:31;;;;;;;3.63;0.97;;;14.50;99.90;;;;;;5050260;28;20220;-72
2022/07/10 02:09:58;;;;;;;4.03;1.10;;;14.40;99.90;;;;;;5050515;28;20204;-72
2022/07/10 02:12:26;;;;;;;6.77;1.20;;;14.50;99.90;;;;;;5050063;28;20208;-71
2022/07/10 02:14:53;;;;;;;4.67;1.10;;;14.50;99.90;;;;;;5037309;28;20713;-71
2022/07/10 02:17:19;;;;;;;3.23;1.00;;;14.40;99.90;;;;;;5030397;28;20217;-71
2022/07/10 02:19:46;;;;;;;3.07;1.13;;;14.40;99.90;;;;;;5033743;28;20216;-72
2022/07/10 02:22:13;;;;;;;2.93;0.90;;;14.40;99.90;;;;;;5049887;28;20228;-71
2022/07/10 02:24:40;;;;;;;3.43;0.90;;;14.40;99.90;;;;;;5038927;28;20212;-70
2022/07/10 02:27:06;;;;;;;2.57;0.90;;;14.30;99.90;;;;;;5030153;28;20209;-72
2022/07/10 02:29:35;;;;;;;4.43;1.10;;;14.40;99.90;;;;;;5031755;28;20291;-73
2022/07/10 02:32:01;;;;;;;5.70;1.17;;;14.40;99.90;;;;;;5035839;28;20233;-73
2022/07/10 02:34:29;;;;;;;3.63;0.90;;;14.30;99.90;;;;;;5030156;28;20271;-73
2022/07/10 02:36:56;;;;;;;4.43;1.30;;;14.30;99.90;;;;;;5035044;28;20983;-73
2022/07/10 02:39:26;;;;;;;4.03;1.20;;;14.30;99.90;;;;;;5049571;28;20211;-73
2022/07/10 02:41:52;;;;;;;3.10;1.10;;;14.30;99.90;;;;;;5049348;28;20204;-73
2022/07/10 02:44:19;;;;;;;2.47;1.00;;;14.30;99.90;;;;;;5041970;28;20205;-73
2022/07/10 02:46:47;;;;;;;2.50;0.80;;;14.30;99.90;;;;;;5029671;28;20219;-70
2022/07/10 02:49:14;;;;;;;4.17;1.20;;;14.30;99.90;;;;;;5029544;28;20216;-70
2022/07/10 02:51:41;;;;;;;4.60;1.07;;;14.30;99.90;;;;;;5029007;28;20216;-70
2022/07/10 02:54:08;;;;;;;2.30;0.83;;;14.30;99.90;;;;;;5036907;28;20208;-70
2022/07/10 02:56:36;;;;;;;2.10;0.93;;;14.30;99.90;;;;;;5049074;28;20231;-71
2022/07/10 02:59:03;;;;;;;1.70;0.60;;;14.30;99.90;;;;;;5048863;28;20552;-71
2022/07/10 03:01:29;;;;;;;2.13;1.07;;;14.20;99.90;;;;;;5040436;28;20220;-71
2022/07/10 03:03:57;;;;;;;3.50;1.00;;;14.20;99.90;;;;;;5045927;28;20283;-73
2022/07/10 03:06:24;;;;;;;2.50;0.90;;;14.20;99.90;;;;;;5048788;28;20208;-72
2022/07/10 03:08:51;;;;;;;3.93;1.13;;;14.20;99.90;;;;;;5048854;28;20655;-72
2022/07/10 03:11:18;;;;;;;2.53;0.83;;;14.20;99.90;;;;;;5048657;28;20223;-72
2022/07/10 03:13:44;;;;;;;3.43;1.03;;;14.10;99.90;;;;;;5047412;28;20654;-72
2022/07/10 03:16:11;;;;;;;5.40;0.90;;;14.10;99.90;;;;;;5033861;28;20232;-73
2022/07/10 03:18:38;;;;;;;3.10;1.03;;;14.10;99.90;;;;;;5048740;28;20218;-74
2022/07/10 03:21:09;;;;;;;4.13;0.83;;;14.10;99.90;;;;;;5048545;28;20215;-74
2022/07/10 03:23:36;;;;;;;3.07;0.90;;;14.10;99.90;;;;;;5039783;28;20671;-74
2022/07/10 03:26:07;;;;;;;2.60;0.90;;;14.10;99.90;;;;;;5047970;28;20197;-74
2022/07/10 03:28:35;;;;;;;3.27;1.07;;;14.10;99.90;;;;;;5032759;28;20251;-73
2022/07/10 03:31:05;;;;;;;4.20;1.23;;;14.10;99.90;;;;;;5043229;28;20228;-72
2022/07/10 03:33:31;;;;;;;2.27;0.90;;;14.10;99.90;;;;;;5028361;28;20208;-72
2022/07/10 03:35:58;;;;;;;2.53;0.80;;;14.10;99.90;;;;;;5046464;28;20691;-71
2022/07/10 03:38:26;;;;;;;3.53;1.10;;;14.00;99.90;;;;;;5048093;28;20212;-71
2022/07/10 03:40:53;;;;;;;2.00;1.00;;;14.00;99.90;;;;;;5048274;28;20208;-72
2022/07/10 03:43:20;;;;;;;3.77;1.00;;;14.00;99.90;;;;;;5048529;28;20232;-71
2022/07/10 03:45:47;;;;;;;3.60;1.33;;;13.90;99.90;;;;;;5031343;28;20205;-72
2022/07/10 03:48:13;;;;;;;3.67;1.37;;;13.90;99.90;;;;;;5028489;28;20222;-73
2022/07/10 03:50:40;;;;;;;5.60;1.27;;;13.90;99.90;;;;;;5038931;28;20507;-73
2022/07/10 03:53:07;;;;;;;2.57;0.83;;;13.90;99.90;;;;;;5048309;28;20216;-72
2022/07/10 03:55:35;;;;;;;2.60;0.90;;;13.90;99.90;;;;;;5046352;28;20235;-72
2022/07/10 03:58:02;;;;;;;2.03;0.80;;;13.90;99.90;;;;;;5048354;28;20243;-70
2022/07/10 04:00:31;;;;;;;4.20;1.00;;;13.90;99.90;;;;;;5047807;28;20208;-69
2022/07/10 04:03:00;;;;;;;4.33;1.10;;;13.90;99.90;;;;;;5035983;28;20227;-70
2022/07/10 04:05:27;;;;;;;3.83;1.10;;;13.90;99.90;;;;;;5028245;28;20219;-70
2022/07/10 04:07:56;;;;;;;2.20;0.90;;;13.90;99.90;;;;;;5028079;28;20201;-69
2022/07/10 04:10:23;;;;;;;3.47;1.13;;;14.00;99.90;;;;;;5028190;28;20209;-70
2022/07/10 04:12:52;;;;;;;2.60;1.07;;;13.90;99.90;;;;;;5036212;28;20210;-70
2022/07/10 04:15:19;;;;;;;2.50;0.87;;;14.00;99.90;;;;;;5036438;28;20197;-69
2022/07/10 04:17:46;;;;;;;3.83;1.37;;;14.00;99.90;;;;;;5042829;28;20567;-70
2022/07/10 04:20:13;;;;;;;3.00;1.23;;;14.00;99.90;;;;;;5047888;28;20208;-70
2022/07/10 04:22:40;;;;;;;2.30;1.23;;;14.00;99.90;;;;;;5041177;28;20301;-69
2022/07/10 04:25:07;;;;;;;6.00;1.30;;;14.00;99.90;;;;;;5036385;28;20687;-70
2022/07/10 04:27:34;;;;;;;3.63;1.20;;;14.10;99.90;;;;;;5027703;28;20217;-69
2022/07/10 04:30:04;;;;;;;4.10;1.03;;;14.10;99.90;;;;;;5027721;28;20204;-70
2022/07/10 04:32:31;;;;;;;3.43;0.90;;;14.00;99.90;;;;;;5027338;28;20236;-69
2022/07/10 04:34:58;;;;;;;3.73;1.30;;;14.10;99.90;;;;;;5036225;28;20204;-70
2022/07/10 04:37:25;;;;;;;3.67;1.20;;;14.10;99.90;;;;;;5046891;28;20603;-70
2022/07/10 04:39:52;;;;;;;2.63;1.10;;;14.10;99.90;;;;;;5047183;28;20196;-70
2022/07/10 04:42:19;;;;;;;3.60;0.97;;;14.00;99.90;;;;;;5047233;28;20678;-70
2022/07/10 04:44:45;;;;;;;3.67;1.20;;;14.10;99.90;;;;;;5040080;28;20203;-70
2022/07/10 04:47:13;;;;;;;5.23;1.40;;;14.00;99.90;;;;;;5040199;28;20550;-70
2022/07/10 04:49:40;;;;;;;4.27;1.00;;;14.00;99.90;;;;;;5047170;28;20241;-70
2022/07/10 04:52:07;;;;;;;6.17;1.27;;;14.10;99.90;;;;;;5046844;28;20211;-70
2022/07/10 04:54:34;;;;;;;2.37;1.00;;;14.10;99.90;;;;;;5041768;28;20205;-70
2022/07/10 04:57:01;;;;;;;3.83;1.30;;;14.20;99.90;;;;;;5026872;28;20237;-70
2022/07/10 04:59:28;;;;;;;3.70;1.27;;;14.20;99.90;;;;;;5027214;28;20204;-70
2022/07/10 05:01:54;;;;;;;2.97;1.30;;;14.20;99.90;;;;;;5027493;28;20204;-71
2022/07/10 05:04:23;;;;;;;4.83;1.40;;;14.20;99.90;;;;;;5030134;28;20204;-71
2022/07/10 05:06:49;;;;;;;3.00;1.40;;;14.20;99.90;;;;;;5049180;28;20219;-71
2022/07/10 05:09:19;;;;;;;5.43;1.60;;;14.20;99.90;;;;;;5041658;28;20208;-71
2022/07/10 05:11:46;;;;;;;4.63;1.27;;;14.20;99.90;;;;;;5031255;28;20296;-71
2022/07/10 05:14:13;;;;;;;8.90;2.13;;;14.30;99.90;;;;;;5032842;28;20208;-71
2022/07/10 05:16:39;;;;;;;7.17;1.53;;;14.20;99.90;;;;;;5051067;28;20223;-73
2022/07/10 05:19:06;;;;;;;2.40;1.07;;;14.20;99.90;;;;;;5051397;28;20298;-73
2022/07/10 05:21:34;;;;;;;4.00;1.30;;;14.20;99.90;;;;;;5030813;28;20212;-73
2022/07/10 05:24:01;;;;;;;3.73;1.47;;;14.20;99.90;;;;;;5043084;28;20212;-73
2022/07/10 05:26:28;;;;;;;5.57;1.70;;;14.20;99.90;;;;;;5050351;28;20211;-70
2022/07/10 05:28:55;;;;;;;2.03;1.27;;;14.20;99.90;;;;;;5051156;28;20219;-70
2022/07/10 05:31:21;;;;;;;4.97;1.20;;;14.10;99.90;;;;;;5049041;28;20730;-70
2022/07/10 05:33:48;;;;;;;4.43;1.53;;;14.10;99.90;;;;;;5030725;28;20215;-71
2022/07/10 05:36:15;;;;;;;4.67;1.47;;;14.20;99.90;;;;;;5038370;28;20224;-71
2022/07/10 05:38:43;;;;;;;2.97;1.40;;;14.30;99.90;;;;;;5050797;28;20216;-70
2022/07/10 05:41:10;;;;;;;3.03;1.43;;;14.40;99.90;;;;;;5033222;28;20201;-70
2022/07/10 05:43:40;;;;;;;5.03;1.70;;;14.40;99.90;;;;;;5045051;28;20231;-70
2022/07/10 05:46:07;;;;;;;5.70;1.87;;;14.40;99.90;;;;;;5050418;28;20586;-70
2022/07/10 05:48:33;;;;;;;2.17;1.30;;;14.50;99.90;;;;;;5050312;28;20243;-69
2022/07/10 05:51:00;;;;;;;4.10;1.53;;;14.60;99.90;;;;;;5035481;28;20686;-70
2022/07/10 05:53:27;;;;;;;4.30;1.80;;;14.60;99.90;;;;;;5037949;28;20257;-70
2022/07/10 05:55:55;;;;;;;2.13;1.40;;;14.60;99.90;;;;;;5050422;28;20219;-70
2022/07/10 05:58:22;;;;;;;6.57;1.50;;;14.60;99.90;;;;;;5050580;28;20227;-70
2022/07/10 06:00:50;;;;;;;2.97;1.67;;;14.60;99.90;;;;;;5050307;28;20200;-70
2022/07/10 06:03:17;;;;;;;4.43;1.87;;;14.50;99.90;;;;;;5050445;28;20303;-70
2022/07/10 06:05:44;;;;;;;4.07;1.90;;;14.50;99.90;;;;;;5050088;28;20291;-70
2022/07/10 06:08:12;;;;;;;4.90;2.43;;;14.60;99.90;;;;;;5049993;28;20197;-70
2022/07/10 06:10:40;;;;;;;3.27;1.50;;;14.60;99.90;;;;;;5038225;28;20686;-71
2022/07/10 06:13:08;;;;;;;4.63;1.40;;;14.60;99.90;;;;;;5037748;28;20566;-71
2022/07/10 06:15:35;;;;;;;4.23;1.47;;;14.60;99.90;;;;;;5048340;28;20212;-71
2022/07/10 06:18:01;;;;;;;5.17;1.40;;;14.70;99.90;;;;;;5029238;28;20680;-71
2022/07/10 06:20:28;;;;;;;4.50;1.63;;;14.70;99.90;;;;;;5038336;28;20200;-71
2022/07/10 06:22:55;;;;;;;4.90;1.50;;;14.80;99.90;;;;;;5047141;28;20232;-71
2022/07/10 06:25:22;;;;;;;4.97;1.37;;;14.90;99.90;;;;;;5030144;28;20215;-72
2022/07/10 06:27:49;;;;;;;3.27;1.70;;;14.90;99.90;;;;;;5030325;28;20288;-71
2022/07/10 06:30:17;;;;;;;3.47;1.10;;;14.90;99.90;;;;;;5035799;28;20289;-71
2022/07/10 06:32:44;;;;;;;3.23;1.50;;;14.90;99.90;;;;;;5049951;28;20204;-71
2022/07/10 06:35:11;;;;;;;3.97;1.80;;;15.00;99.90;;;;;;5050098;28;20213;-71
2022/07/10 06:37:38;;;;;;;4.23;1.57;;;15.00;99.90;;;;;;5049272;28;20232;-74
2022/07/10 06:40:06;;;;;;;3.80;1.83;;;15.10;99.90;;;;;;5049745;28;20204;-73
2022/07/10 06:42:33;;;;;;;3.97;1.37;;;15.10;99.90;;;;;;5049677;28;20204;-74
2022/07/10 06:45:00;;;;;;;4.97;1.40;;;15.10;99.90;;;;;;5049690;28;20207;-72
2022/07/10 06:50:13;;;;;;;6.60;1.70;;;15.10;99.90;;;;;;5044353;28;20199;-72
2022/07/10 06:52:40;;;;;;;3.87;1.40;;;15.10;99.90;;;;;;5029670;28;20604;-71
2022/07/10 06:55:07;;;;;;;4.27;1.60;;;15.10;99.90;;;;;;5049367;28;20200;-71
2022/07/10 06:57:34;;;;;;;4.90;2.00;;;15.10;99.90;;;;;;5048601;28;20737;-70
2022/07/10 07:00:01;;;;;;;6.03;1.80;;;15.00;99.90;;;;;;5048549;28;20196;-70
2022/07/10 07:02:29;;;;;;;3.07;1.70;;;14.90;99.90;;;;;;5033528;28;20231;-72
2022/07/10 07:04:55;;;;;;;5.97;2.00;;;14.80;99.90;;;;;;5029358;28;20208;-72
2022/07/10 07:07:22;;;;;;;4.67;1.97;;;15.00;99.90;;;;;;5029044;28;20668;-71
2022/07/10 07:09:50;;;;;;;4.00;1.43;;;15.10;99.90;;;;;;5043012;28;20200;-74
2022/07/10 07:12:17;;;;;;;6.67;1.60;;;15.20;99.90;;;;;;5048517;28;20664;-71
2022/07/10 07:14:44;;;;;;;8.50;1.70;;;15.30;99.90;;;;;;5048825;28;20220;-71
2022/07/10 07:17:13;;;;;;;4.63;1.50;;;15.40;99.90;;;;;;5046870;28;20235;-71
2022/07/10 07:25:11;;;;;;;11.93;2.03;;;15.60;99.90;;;;;;5028562;28;20224;-73
2022/07/10 07:27:39;;;;;;;5.27;2.00;;;15.70;99.90;;;;;;5034665;28;20192;-73
2022/07/10 07:30:10;;;;;;;4.93;1.70;;;15.70;99.90;;;;;;5048655;28;20258;-73
2022/07/10 07:32:37;;;;;;;7.57;2.07;;;15.80;99.90;;;;;;5048411;28;20340;-73
2022/07/10 07:35:07;;;;;;;6.10;1.70;;;16.00;99.90;;;;;;5047421;28;20205;-72
2022/07/10 07:37:38;;;;;;;7.07;2.03;;;16.10;99.90;;;;;;5041262;28;20240;-72
2022/07/10 07:40:06;;;;;;;4.90;1.50;;;16.30;99.90;;;;;;5026270;28;20734;-72
2022/07/10 07:42:33;;;;;;;3.87;1.80;;;16.40;99.90;;;;;;5033217;28;20291;-72
2022/07/10 07:45:00;;;;;;;8.17;1.77;;;16.40;99.90;;;;;;5046104;28;20208;-72
2022/07/10 07:47:27;;;;;;;5.50;1.60;;;16.40;99.90;;;;;;5044646;28;20207;-72
2022/07/10 07:49:54;;;;;;;7.50;2.10;;;16.40;99.90;;;;;;5046131;28;20307;-72
2022/07/10 07:52:22;;;;;;;3.97;1.60;;;16.30;99.90;;;;;;5046022;28;20206;-71
2022/07/10 07:54:50;;;;;;;4.93;1.87;;;16.10;99.90;;;;;;5046398;28;20745;-72
2022/07/10 07:57:17;;;;;;;3.53;1.60;;;16.00;99.90;;;;;;5045481;28;20236;-72
2022/07/10 07:59:44;;;;;;;7.03;1.33;;;16.00;99.90;;;;;;5026047;28;20681;-72
2022/07/10 08:02:11;;;;;;;3.73;1.50;;;16.00;99.90;;;;;;5025926;28;20212;-72
2022/07/10 08:04:37;;;;;;;4.43;1.50;;;16.10;99.90;;;;;;5025779;28;20674;-72
2022/07/10 08:07:05;;;;;;;7.93;2.57;;;16.10;99.90;;;;;;5027866;28;20323;-72
2022/07/10 08:09:33;;;;;;;5.27;1.87;;;16.10;99.90;;;;;;5026635;28;20213;-71
2022/07/10 08:11:59;;;;;;;7.67;2.13;;;16.10;99.90;;;;;;5025613;28;20209;-71
2022/07/10 08:14:26;;;;;;;3.13;1.40;;;16.10;99.90;;;;;;5025908;28;20209;-71
2022/07/10 08:16:53;;;;;;;5.97;1.37;;;16.20;99.90;;;;;;5025631;28;20236;-71
2022/07/10 08:19:20;;;;;;;4.43;1.43;;;16.30;99.90;;;;;;5042518;28;20238;-71
2022/07/10 08:21:47;;;;;;;7.83;1.90;;;16.20;99.90;;;;;;5045526;28;20204;-71
2022/07/10 08:24:14;;;;;;;6.37;2.10;;;16.30;99.90;;;;;;5031758;28;20220;-72
2022/07/10 08:26:43;;;;;;;5.90;2.13;;;16.30;99.90;;;;;;5029412;28;20208;-72
2022/07/10 08:29:10;;;;;;;4.50;1.70;;;16.30;99.90;;;;;;5044012;28;20726;-72
2022/07/10 08:31:36;;;;;;;6.57;1.67;;;16.30;99.90;;;;;;5038881;28;21633;-72
2022/07/10 08:34:03;;;;;;;6.00;1.90;;;16.30;99.90;;;;;;5045073;28;20196;-72
2022/07/10 08:36:30;;;;;;;5.20;1.73;;;16.10;99.90;;;;;;5045011;28;20666;-73
2022/07/10 08:38:58;;;;;;;4.43;1.80;;;16.10;99.90;;;;;;5045812;28;20266;-75
2022/07/10 08:41:27;;;;;;;5.87;1.50;;;16.10;99.90;;;;;;5044123;28;20678;-76
2022/07/10 08:43:55;;;;;;;8.20;2.00;;;16.20;99.90;;;;;;5025129;28;20691;-77
2022/07/10 08:46:23;;;;;;;3.70;1.63;;;16.20;99.90;;;;;;5025925;28;20240;-73
2022/07/10 08:48:54;;;;;;;6.90;1.80;;;16.20;99.90;;;;;;5025292;28;20215;-72
2022/07/10 08:51:30;;;;;;;6.33;1.90;;;16.20;99.90;;;;;;5025032;28;20735;-72
2022/07/10 08:53:58;;;;;;;4.67;1.70;;;16.30;99.90;;;;;;5036073;28;20685;-72
2022/07/10 08:56:25;;;;;;;4.87;1.70;;;16.30;99.90;;;;;;5045320;28;20232;-72
2022/07/10 08:58:54;;;;;;;11.07;2.07;;;16.40;99.90;;;;;;5045359;28;20235;-73
2022/07/10 09:01:23;;;;;;;6.03;2.17;;;16.40;99.90;;;;;;5043987;28;20664;-71
2022/07/10 09:03:50;;;;;;;5.90;2.13;;;16.50;99.90;;;;;;5025566;28;20208;-74
2022/07/10 09:06:17;;;;;;;5.63;2.83;;;16.50;99.90;;;;;;5042732;28;20212;-72
2022/07/10 09:08:59;;;;;;;6.90;2.10;;;16.60;99.90;;;;;;5030497;28;20581;-73
2022/07/10 09:11:28;;;;;;;4.53;1.97;;;16.70;99.90;;;;;;5025324;28;20208;-73
2022/07/10 09:13:58;;;;;;;6.20;1.80;;;16.80;99.90;;;;;;5045928;28;20212;-73
2022/07/10 09:16:26;;;;;;;6.30;1.90;;;16.90;99.90;;;;;;5045579;28;20227;-72
2022/07/10 09:18:53;;;;;;;6.17;1.53;;;17.00;99.90;;;;;;5045924;28;20235;-72
2022/07/10 09:21:20;;;;;;;8.77;3.53;;;17.10;99.90;;;;;;5043205;28;20201;-72
2022/07/10 09:23:48;;;;;;;5.23;1.90;;;17.10;99.90;;;;;;5033214;28;20205;-73
2022/07/10 09:26:15;;;;;;;7.07;2.00;;;17.10;99.90;;;;;;5033759;28;20213;-72
2022/07/10 09:28:42;;;;;;;8.60;2.40;;;16.90;99.90;;;;;;5036195;28;20863;-73
2022/07/10 09:31:10;;;;;;;8.03;1.97;;;16.80;99.90;;;;;;5040323;28;20236;-73
2022/07/10 09:33:37;;;;;;;6.57;1.93;;;16.90;99.90;;;;;;5036152;28;20204;-72
2022/07/10 09:36:08;;;;;;;5.83;1.93;;;16.80;99.90;;;;;;5038810;28;20211;-72
2022/07/10 09:39:06;;;;;;;3.90;1.60;;;16.90;99.90;;;;;;5033935;28;20508;-73
2022/07/10 09:41:33;;;;;;;4.77;1.80;;;17.10;99.90;;;;;;4992840;28;20197;-72
2022/07/10 09:44:02;;;;;;;4.00;1.80;;;17.20;99.90;;;;;;5024180;28;20231;-72
2022/07/10 09:46:32;;;;;;;5.17;1.90;;;17.20;99.90;;;;;;5033199;28;20203;-73
2022/07/10 09:49:04;;;;;;;5.37;2.10;;;17.30;99.90;;;;;;5042021;28;20201;-73
2022/07/10 09:51:33;;;;;;;8.03;2.70;;;17.40;99.90;;;;;;5034772;28;20200;-72
2022/07/10 09:54:02;;;;;;;5.33;2.73;;;17.40;99.90;;;;;;5036269;28;20259;-73
2022/07/10 09:56:33;;;;;;;7.10;2.50;;;17.50;99.90;;;;;;5041541;28;20230;-73
2022/07/10 09:59:01;;;;;;;5.57;2.20;;;17.50;99.90;;;;;;5038723;28;20224;-73
2022/07/10 10:01:30;;;;;;;3.43;1.30;;;17.60;99.90;;;;;;5028461;28;20216;-73
2022/07/10 10:04:01;;;;;;;8.80;2.37;;;17.60;99.90;;;;;;5037108;28;20692;-73
2022/07/10 10:06:31;;;;;;;6.70;2.17;;;17.60;99.90;;;;;;5038321;28;20201;-73
2022/07/10 10:09:05;;;;;;;6.43;1.57;;;17.60;99.90;;;;;;5029501;28;20232;-73
2022/07/10 10:11:35;;;;;;;8.20;1.77;;;17.50;99.90;;;;;;5033268;28;20279;-73
2022/07/10 10:14:03;;;;;;;5.90;1.27;;;17.50;99.90;;;;;;5041864;28;20266;-71
2022/07/10 10:16:32;;;;;;;5.40;1.57;;;17.50;99.90;;;;;;5041029;28;20252;-71
2022/07/10 10:21:45;;;;;;;5.53;1.80;;;17.70;99.90;;;;;;5036959;28;20190;-72
2022/07/10 10:24:13;;;;;;;6.73;2.10;;;17.90;99.90;;;;;;5039042;28;20254;-73
2022/07/10 10:26:40;;;;;;;5.23;1.83;;;18.10;99.90;;;;;;5036535;28;20470;-73
2022/07/10 10:29:08;;;;;;;7.53;2.00;;;18.30;99.90;;;;;;5032944;28;20227;-73
2022/07/10 10:31:37;;;;;;;4.07;1.80;;;18.20;99.90;;;;;;5046550;28;20259;-73
2022/07/10 10:34:04;;;;;;;5.87;1.67;;;18.20;99.90;;;;;;5047937;28;20214;-72
2022/07/10 10:36:48;;;;;;;5.63;2.00;;;18.20;99.90;;;;;;5047324;28;20212;-72
2022/07/10 10:39:17;;;;;;;8.17;2.13;;;18.00;99.90;;;;;;5047409;28;20251;-73
2022/07/10 10:41:48;;;;;;;5.33;1.97;;;18.00;99.90;;;;;;5046892;28;20200;-72
2022/07/10 10:44:28;;;;;;;6.03;2.03;;;18.00;99.90;;;;;;5046957;28;20200;-73
2022/07/10 10:47:07;;;;;;;4.50;1.90;;;17.90;99.90;;;;;;5047021;28;20211;-72
2022/07/10 10:50:04;;;;;;;5.90;2.10;;;17.90;99.90;;;;;;5047273;28;20208;-73
2022/07/10 10:52:31;;;;;;;10.17;2.00;;;17.90;99.90;;;;;;4974755;28;20242;-72
2022/07/10 10:55:14;;;;;;;4.73;1.90;;;17.90;99.90;;;;;;5013353;28;20209;-73
2022/07/10 10:57:47;;;;;;;3.83;1.70;;;18.10;99.90;;;;;;5036100;28;20315;-73
2022/07/10 11:00:37;;;;;;;3.17;1.90;;;18.30;99.90;;;;;;5027039;28;20193;-73
2022/07/10 11:03:29;;;;;;;5.83;1.77;;;18.40;99.90;;;;;;5027335;28;20204;-73
2022/07/10 11:05:56;;;;;;;7.03;2.10;;;18.70;99.90;;;;;;5020639;28;20212;-73
2022/07/10 11:08:40;;;;;;;5.07;1.60;;;18.80;99.90;;;;;;5026705;28;20217;-73
2022/07/10 11:11:40;;;;;;;4.87;1.97;;;18.70;99.90;;;;;;5028864;28;20283;-73
2022/07/10 11:14:09;;;;;;;8.33;1.93;;;18.50;99.90;;;;;;5044004;28;20231;-73
2022/07/10 11:16:36;;;;;;;6.57;1.77;;;18.40;99.90;;;;;;5046888;28;20240;-73
2022/07/10 11:19:04;;;;;;;4.53;1.87;;;18.40;99.90;;;;;;5047206;28;20232;-73
2022/07/10 11:21:46;;;;;;;4.73;1.70;;;18.30;99.90;;;;;;5034860;28;20258;-72
2022/07/10 11:24:27;;;;;;;7.53;2.40;;;18.20;99.90;;;;;;5027442;28;20221;-73
2022/07/10 11:27:03;;;;;;;4.43;1.87;;;18.10;99.90;;;;;;5029361;28;20197;-70
2022/07/10 11:29:37;;;;;;;7.90;2.10;;;18.00;99.90;;;;;;5046054;28;20214;-71
2022/07/10 11:32:06;;;;;;;4.90;2.23;;;18.10;99.90;;;;;;5035731;28;20236;-72
2022/07/10 11:34:36;;;;;;;6.30;2.07;;;18.10;99.90;;;;;;5025237;28;20208;-72
2022/07/10 11:37:03;;;;;;;3.73;1.63;;;18.20;99.90;;;;;;5031556;28;20219;-72
2022/07/10 11:39:30;;;;;;;4.87;1.77;;;18.40;99.90;;;;;;5024669;28;20780;-73
2022/07/10 11:41:57;;;;;;;5.47;1.93;;;18.60;99.90;;;;;;5030380;28;20223;-72
2022/07/10 11:44:24;;;;;;;4.97;1.60;;;18.70;99.90;;;;;;5040100;28;20200;-71
2022/07/10 11:46:54;;;;;;;3.87;1.50;;;18.70;99.90;;;;;;5045217;28;20227;-71
2022/07/10 11:49:21;;;;;;;3.17;1.60;;;18.70;99.90;;;;;;5045339;28;20912;-71
2022/07/10 11:51:49;;;;;;;5.20;1.70;;;18.60;99.90;;;;;;5045639;28;20306;-74
2022/07/10 11:54:18;;;;;;;5.10;1.57;;;18.60;99.90;;;;;;5030731;28;20218;-73
2022/07/10 11:56:48;;;;;;;4.97;1.63;;;18.40;99.90;;;;;;5026283;28;20231;-74
2022/07/10 11:59:16;;;;;;;2.63;1.37;;;18.40;99.90;;;;;;5026344;28;20239;-73
2022/07/10 12:01:45;;;;;;;4.43;1.80;;;18.40;99.90;;;;;;5026030;28;20216;-73
2022/07/10 12:04:13;;;;;;;5.27;1.43;;;18.50;99.90;;;;;;5040694;28;20202;-73
2022/07/10 12:06:41;;;;;;;4.30;1.57;;;18.60;99.90;;;;;;5045684;28;20204;-74
2022/07/10 12:09:11;;;;;;;5.53;1.80;;;18.60;99.90;;;;;;5041860;28;20751;-73
2022/07/10 12:11:38;;;;;;;4.37;1.70;;;18.80;99.90;;;;;;5041342;28;20269;-73
2022/07/10 12:14:14;;;;;;;4.90;1.50;;;18.90;99.90;;;;;;5026452;28;20207;-74
2022/07/10 12:16:42;;;;;;;6.20;2.23;;;19.00;99.90;;;;;;5025598;28;20254;-74
2022/07/10 12:19:10;;;;;;;5.63;1.50;;;18.90;99.90;;;;;;5030651;28;20231;-74
2022/07/10 12:21:38;;;;;;;7.83;1.93;;;19.00;99.90;;;;;;5034416;28;20208;-72
2022/07/10 12:24:05;;;;;;;5.33;1.80;;;19.10;99.90;;;;;;5042673;28;20204;-72
2022/07/10 12:26:35;;;;;;;4.37;1.97;;;19.10;99.90;;;;;;5045404;28;20212;-72
2022/07/10 12:29:03;;;;;;;3.87;1.70;;;19.00;99.90;;;;;;5045595;28;20203;-72
2022/07/10 12:31:32;;;;;;;4.33;1.77;;;18.80;99.90;;;;;;5044234;28;20251;-72
2022/07/10 12:34:01;;;;;;;6.47;1.87;;;18.70;99.90;;;;;;5045355;28;20293;-72
2022/07/10 12:36:45;;;;;;;3.77;1.33;;;18.60;99.90;;;;;;5045062;28;20242;-72
2022/07/10 12:39:13;;;;;;;2.60;1.27;;;18.70;99.90;;;;;;5036796;28;20224;-72
2022/07/10 12:41:58;;;;;;;4.93;1.87;;;18.70;99.90;;;;;;5032149;28;20196;-72
2022/07/10 12:44:36;;;;;;;6.33;1.80;;;18.70;99.90;;;;;;5045694;28;20208;-72
2022/07/10 12:47:08;;;;;;;5.47;1.87;;;18.70;99.90;;;;;;5045724;28;20239;-72
2022/07/10 12:49:52;;;;;;;2.10;1.30;;;18.70;99.90;;;;;;5033530;28;20209;-72
2022/07/10 12:52:24;;;;;;;4.40;1.90;;;18.80;99.90;;;;;;5037373;28;20203;-72
2022/07/10 12:55:06;;;;;;;3.63;1.77;;;19.00;99.90;;;;;;5046297;28;20290;-72
2022/07/10 12:57:46;;;;;;;6.73;1.70;;;19.20;99.90;;;;;;5045131;28;20228;-72
2022/07/10 13:00:14;;;;;;;6.37;2.20;;;19.30;99.90;;;;;;5045158;28;20274;-72
2022/07/10 13:02:41;;;;;;;7.53;1.70;;;19.40;99.90;;;;;;5044205;28;20200;-72
2022/07/10 13:05:09;;;;;;;4.17;1.70;;;19.50;99.90;;;;;;5045059;28;20208;-72